createdAt,value
2022-12-04T00:01:10.946Z,38.33
2022-12-04T00:03:37.571Z,36.22
2022-12-04T00:06:06.208Z,43.80
2022-12-04T00:08:32.611Z,43.65
2022-12-04T00:10:59.285Z,49.45
2022-12-04T00:13:26.609Z,47.13
2022-12-04T00:15:54.036Z,48.00
2022-12-04T00:18:20.525Z,49.03
2022-12-04T00:20:46.951Z,46.15
2022-12-04T00:23:14.095Z,44.22
2022-12-04T00:25:41.543Z,46.58
2022-12-04T00:28:08.750Z,42.60
2022-12-04T00:30:35.206Z,44.63
2022-12-04T00:33:01.648Z,42.92
2022-12-04T00:35:28.059Z,46.92
2022-12-04T00:37:54.440Z,46.50
2022-12-04T00:40:20.925Z,50.80
2022-12-04T00:42:47.297Z,46.47
2022-12-04T00:45:13.718Z,51.72
2022-12-04T00:47:40.201Z,46.58
2022-12-04T00:50:08.170Z,37.75
2022-12-04T00:52:34.606Z,47.22
2022-12-04T00:55:01.077Z,46.80
2022-12-04T00:57:27.587Z,50.25
2022-12-04T00:59:54.301Z,46.80
2022-12-04T01:02:20.986Z,48.63
2022-12-04T01:04:47.665Z,47.05
2022-12-04T01:07:14.159Z,53.30
2022-12-04T01:09:40.551Z,44.15
2022-12-04T01:12:07.187Z,48.45
2022-12-04T01:14:33.898Z,47.35
2022-12-04T01:17:00.668Z,49.13
2022-12-04T01:19:27.173Z,46.33
2022-12-04T01:21:53.739Z,46.80
2022-12-04T01:24:20.217Z,51.85
2022-12-04T01:26:46.685Z,51.47
2022-12-04T01:29:16.944Z,48.15
2022-12-04T01:31:43.492Z,52.53
2022-12-04T01:34:09.934Z,44.30
2022-12-04T01:36:36.487Z,46.63
2022-12-04T01:39:02.995Z,50.40
2022-12-04T01:41:30.754Z,49.42
2022-12-04T01:44:21.078Z,49.00
2022-12-04T01:46:55.924Z,48.00
2022-12-04T01:49:31.259Z,43.42
2022-12-04T01:52:02.407Z,53.97
2022-12-04T01:54:32.305Z,52.58
2022-12-04T01:57:13.381Z,50.40
2022-12-04T02:00:00.759Z,49.85
2022-12-04T02:02:35.126Z,52.65
2022-12-04T02:05:04.150Z,49.97
2022-12-04T02:07:31.013Z,52.05
2022-12-04T02:10:03.665Z,46.20
2022-12-04T02:12:47.380Z,55.63
2022-12-04T02:15:18.738Z,54.45
2022-12-04T02:17:58.183Z,53.30
2022-12-04T02:20:25.602Z,53.10
2022-12-04T02:23:29.821Z,55.83
2022-12-04T02:26:05.634Z,54.65
2022-12-04T02:28:39.329Z,60.95
2022-12-04T02:31:12.337Z,59.20
2022-12-04T02:33:47.943Z,62.28
2022-12-04T02:36:20.795Z,65.20
2022-12-04T02:39:05.432Z,61.13
2022-12-04T02:41:42.423Z,62.53
2022-12-04T02:44:20.425Z,65.90
2022-12-04T02:46:51.120Z,60.13
2022-12-04T02:49:40.754Z,57.20
2022-12-04T02:52:12.991Z,63.80
2022-12-04T02:54:45.798Z,60.35
2022-12-04T02:57:19.440Z,66.88
2022-12-04T03:02:39.526Z,61.78
2022-12-04T03:05:12.995Z,58.92
2022-12-04T03:08:02.750Z,62.20
2022-12-04T03:10:45.844Z,65.28
2022-12-04T03:13:18.950Z,59.50
2022-12-04T03:15:54.949Z,65.70
2022-12-04T03:18:30.732Z,57.97
2022-12-04T03:21:05.048Z,62.50
2022-12-04T03:23:39.847Z,61.13
2022-12-04T03:26:25.524Z,62.38
2022-12-04T03:29:06.751Z,66.50
2022-12-04T03:32:01.494Z,59.50
2022-12-04T03:34:35.359Z,65.55
2022-12-04T03:37:10.454Z,67.28
2022-12-04T03:39:55.369Z,71.03
2022-12-04T03:43:01.841Z,66.43
2022-12-04T03:45:42.122Z,71.05
2022-12-04T03:48:24.091Z,70.22
2022-12-04T03:51:00.515Z,75.28
2022-12-04T03:53:39.368Z,68.55
2022-12-04T03:56:14.240Z,68.95
2022-12-04T03:58:46.763Z,68.80
2022-12-04T04:01:15.470Z,69.90
2022-12-04T04:03:48.583Z,72.90
2022-12-04T04:06:20.646Z,76.18
2022-12-04T04:08:51.924Z,72.28
2022-12-04T04:11:24.541Z,66.32
2022-12-04T04:14:13.641Z,65.33
2022-12-04T04:17:05.203Z,73.60
2022-12-04T04:19:54.140Z,75.43
2022-12-04T04:22:43.555Z,64.13
2022-12-04T04:25:24.292Z,73.07
2022-12-04T04:27:55.089Z,76.13
2022-12-04T04:30:22.124Z,77.70
2022-12-04T04:32:51.432Z,74.90
2022-12-04T04:35:39.790Z,76.95
2022-12-04T04:38:27.662Z,81.47
2022-12-04T04:41:10.032Z,75.78
2022-12-04T04:44:05.508Z,69.07
2022-12-04T04:46:40.667Z,76.53
2022-12-04T04:49:10.999Z,85.65
2022-12-04T04:51:38.296Z,84.68
2022-12-04T04:54:08.612Z,86.82
2022-12-04T04:56:42.106Z,99.82
2022-12-04T04:59:08.718Z,94.32
2022-12-04T05:01:35.887Z,69.38
2022-12-04T05:04:05.007Z,69.63
2022-12-04T05:06:31.935Z,74.97
2022-12-04T05:08:59.115Z,71.75
2022-12-04T05:11:25.677Z,68.45
2022-12-04T05:13:52.744Z,72.35
2022-12-04T05:16:19.291Z,72.15
2022-12-04T05:19:05.748Z,66.20
2022-12-04T05:21:32.687Z,63.15
2022-12-04T05:23:59.549Z,72.28
2022-12-04T05:26:26.304Z,66.60
2022-12-04T05:28:52.720Z,65.35
2022-12-04T05:31:19.350Z,74.88
2022-12-04T05:33:45.816Z,68.45
2022-12-04T05:36:13.379Z,68.13
2022-12-04T05:38:40.329Z,64.65
2022-12-04T05:41:07.340Z,66.13
2022-12-04T05:43:34.325Z,69.72
2022-12-04T05:46:03.090Z,69.95
2022-12-04T05:48:29.736Z,68.72
2022-12-04T05:50:56.358Z,72.78
2022-12-04T05:53:23.388Z,69.38
2022-12-04T05:55:57.721Z,63.97
2022-12-04T05:58:24.857Z,65.47
2022-12-04T06:00:51.406Z,68.15
2022-12-04T06:03:18.012Z,67.40
2022-12-04T06:05:44.920Z,68.30
2022-12-04T06:08:11.704Z,67.45
2022-12-04T06:10:38.269Z,70.95
2022-12-04T06:13:06.475Z,72.75
2022-12-04T06:15:40.232Z,72.35
2022-12-04T06:18:08.253Z,62.05
2022-12-04T06:20:35.205Z,69.50
2022-12-04T06:23:01.628Z,71.22
2022-12-04T06:25:28.662Z,67.60
2022-12-04T06:27:55.087Z,61.25
2022-12-04T06:30:22.708Z,72.10
2022-12-04T06:32:49.355Z,71.63
2022-12-04T06:35:16.253Z,60.70
2022-12-04T06:37:42.666Z,65.38
2022-12-04T06:40:09.560Z,65.70
2022-12-04T06:42:36.003Z,65.47
2022-12-04T06:45:02.404Z,63.83
2022-12-04T06:47:28.846Z,67.82
2022-12-04T06:49:55.518Z,68.80
2022-12-04T06:52:22.148Z,60.00
2022-12-04T06:54:48.571Z,66.80
2022-12-04T06:57:18.262Z,75.38
2022-12-04T06:59:44.667Z,67.78
2022-12-04T07:02:11.215Z,67.63
2022-12-04T07:04:37.645Z,63.53
2022-12-04T07:07:04.055Z,67.53
2022-12-04T07:09:30.534Z,67.68
2022-12-04T07:11:57.062Z,61.42
2022-12-04T07:14:23.539Z,68.00
2022-12-04T07:16:50.047Z,71.85
2022-12-04T07:19:16.639Z,70.43
2022-12-04T07:21:43.731Z,69.65
2022-12-04T07:24:15.783Z,68.43
2022-12-04T07:26:42.713Z,63.00
2022-12-04T07:29:10.586Z,62.33
2022-12-04T07:31:37.712Z,66.35
2022-12-04T07:34:04.199Z,59.85
2022-12-04T07:36:30.772Z,63.97
2022-12-04T07:38:57.798Z,63.25
2022-12-04T07:41:24.384Z,61.45
2022-12-04T07:43:50.947Z,71.05
2022-12-04T07:46:23.601Z,68.63
2022-12-04T07:48:52.219Z,65.07
2022-12-04T07:51:21.721Z,62.90
2022-12-04T07:53:49.602Z,64.50
2022-12-04T07:56:16.768Z,62.42
2022-12-04T07:58:43.607Z,67.72
2022-12-04T08:01:21.938Z,63.17
2022-12-04T08:03:50.498Z,61.25
2022-12-04T08:06:19.036Z,67.85
2022-12-04T08:08:46.249Z,67.32
2022-12-04T08:11:15.477Z,66.63
2022-12-04T08:13:42.096Z,68.80
2022-12-04T08:16:10.381Z,69.07
2022-12-04T08:18:37.238Z,62.75
2022-12-04T08:21:12.625Z,68.47
2022-12-04T08:23:41.261Z,66.20
2022-12-04T08:26:08.588Z,71.43
2022-12-04T08:28:36.045Z,65.40
2022-12-04T08:31:08.208Z,70.68
2022-12-04T08:33:35.323Z,73.90
2022-12-04T08:36:02.281Z,73.88
2022-12-04T08:38:28.665Z,67.47
2022-12-04T08:40:58.963Z,68.60
2022-12-04T08:43:25.345Z,63.78
2022-12-04T08:46:12.343Z,61.95
2022-12-04T08:48:39.526Z,66.00
2022-12-04T08:51:08.209Z,65.22
2022-12-04T08:53:36.564Z,64.63
2022-12-04T08:56:03.990Z,58.45
2022-12-04T08:58:30.544Z,58.30
2022-12-04T09:00:57.089Z,65.00
2022-12-04T09:03:29.195Z,69.72
2022-12-04T09:08:25.636Z,69.75
2022-12-04T09:10:52.093Z,52.97
2022-12-04T09:13:18.507Z,67.97
2022-12-04T09:15:45.026Z,59.08
2022-12-04T09:18:11.820Z,60.88
2022-12-04T09:20:38.441Z,62.58
2022-12-04T09:23:05.806Z,58.97
2022-12-04T09:25:35.953Z,61.65
2022-12-04T09:28:02.380Z,64.45
2022-12-04T09:30:28.797Z,56.88
2022-12-04T09:32:55.184Z,58.30
2022-12-04T09:35:21.575Z,62.85
2022-12-04T09:37:47.963Z,59.58
2022-12-04T09:40:35.424Z,59.25
2022-12-04T09:43:20.480Z,65.88
2022-12-04T09:45:51.663Z,62.70
2022-12-04T09:48:21.441Z,62.13
2022-12-04T09:50:50.088Z,59.03
2022-12-04T09:53:30.024Z,60.22
2022-12-04T09:56:04.516Z,60.70
2022-12-04T09:58:41.029Z,59.83
2022-12-04T10:01:35.778Z,55.92
2022-12-04T10:04:06.143Z,55.25
2022-12-04T10:06:42.375Z,54.97
2022-12-04T10:09:28.334Z,52.03
2022-12-04T10:12:23.275Z,59.05
2022-12-04T10:15:25.831Z,58.33
2022-12-04T10:18:10.619Z,61.65
2022-12-04T10:20:52.837Z,59.80
2022-12-04T10:23:57.988Z,60.33
2022-12-04T10:26:30.374Z,57.33
2022-12-04T10:29:01.069Z,63.45
2022-12-04T10:31:29.586Z,56.67
2022-12-04T10:34:02.172Z,59.00
2022-12-04T10:36:32.763Z,59.00
2022-12-04T10:39:04.039Z,58.90
2022-12-04T10:42:05.351Z,55.92
2022-12-04T10:44:31.980Z,64.60
2022-12-04T10:47:01.683Z,65.80
2022-12-04T10:49:34.485Z,62.80
2022-12-04T10:52:01.495Z,61.03
2022-12-04T10:54:33.659Z,68.38
2022-12-04T10:57:04.180Z,56.40
2022-12-04T10:59:31.782Z,56.95
2022-12-04T11:02:11.146Z,65.60
2022-12-04T11:04:38.014Z,56.30
2022-12-04T11:07:21.143Z,56.55
2022-12-04T11:10:32.611Z,58.92
2022-12-04T11:13:14.099Z,58.78
2022-12-04T11:15:52.065Z,61.50
2022-12-04T11:18:28.778Z,60.88
2022-12-04T11:21:04.486Z,57.00
2022-12-04T11:23:43.553Z,62.78
2022-12-04T11:26:10.963Z,61.10
2022-12-04T11:28:42.171Z,60.55
2022-12-04T11:31:15.728Z,62.33
2022-12-04T11:33:54.696Z,56.88
2022-12-04T11:36:30.244Z,63.45
2022-12-04T11:39:11.286Z,56.03
2022-12-04T11:41:38.533Z,66.88
2022-12-04T11:44:24.876Z,57.72
2022-12-04T11:46:53.956Z,58.55
2022-12-04T11:49:22.749Z,57.70
2022-12-04T11:52:13.743Z,58.25
2022-12-04T11:54:56.457Z,56.78
2022-12-04T11:57:39.787Z,61.35
2022-12-04T12:00:18.347Z,61.53
2022-12-04T12:02:44.826Z,65.35
2022-12-04T12:05:17.443Z,62.03
2022-12-04T12:08:03.346Z,70.97
2022-12-04T12:10:47.272Z,58.28
2022-12-04T12:16:11.958Z,61.92
2022-12-04T12:19:09.721Z,66.20
2022-12-04T12:21:43.252Z,59.58
2022-12-04T12:24:29.325Z,66.05
2022-12-04T12:27:17.704Z,65.32
2022-12-04T12:30:17.873Z,60.47
2022-12-04T12:33:02.789Z,66.75
2022-12-04T12:35:46.912Z,59.30
2022-12-04T12:38:19.600Z,63.45
2022-12-04T12:40:53.158Z,68.20
2022-12-04T12:46:25.844Z,63.78
2022-12-04T12:49:17.543Z,68.40
2022-12-04T12:51:54.553Z,65.32
2022-12-04T12:54:39.942Z,69.25
2022-12-04T12:57:17.596Z,66.32
2022-12-04T13:00:00.941Z,73.45
2022-12-04T13:02:37.234Z,66.63
2022-12-04T13:05:10.847Z,64.63
2022-12-04T13:10:32.823Z,65.47
2022-12-04T13:13:19.096Z,67.15
2022-12-04T13:15:56.336Z,65.82
2022-12-04T13:18:48.273Z,63.03
2022-12-04T13:21:28.216Z,72.63
2022-12-04T13:24:17.709Z,68.20
2022-12-04T13:26:53.852Z,72.03
2022-12-04T13:29:41.950Z,68.38
2022-12-04T13:32:28.810Z,69.88
2022-12-04T13:35:11.681Z,67.90
2022-12-04T13:37:50.656Z,68.68
2022-12-04T13:40:31.321Z,74.15
2022-12-04T13:43:18.740Z,71.95
2022-12-04T13:45:47.459Z,75.22
2022-12-04T13:48:13.975Z,65.40
2022-12-04T13:50:40.993Z,71.55
2022-12-04T13:53:35.106Z,70.90
2022-12-04T13:58:36.188Z,72.38
2022-12-04T14:01:30.881Z,66.30
2022-12-04T14:03:59.656Z,77.60
2022-12-04T14:06:33.955Z,82.60
2022-12-04T14:09:04.747Z,70.85
2022-12-04T14:11:44.082Z,71.25
2022-12-04T14:14:47.868Z,70.45
2022-12-04T14:17:25.911Z,76.05
2022-12-04T14:19:55.251Z,68.07
2022-12-04T14:22:35.476Z,83.97
2022-12-04T14:25:07.411Z,72.30
2022-12-04T14:27:47.075Z,73.68
2022-12-04T14:30:28.637Z,69.20
2022-12-04T14:33:12.236Z,77.10
2022-12-04T14:35:49.724Z,77.40
2022-12-04T14:38:20.600Z,71.88
2022-12-04T14:40:51.917Z,69.18
2022-12-04T14:43:21.628Z,77.20
2022-12-04T14:45:58.223Z,70.43
2022-12-04T14:48:30.715Z,78.35
2022-12-04T14:51:29.581Z,75.35
2022-12-04T14:54:39.764Z,76.97
2022-12-04T14:57:09.293Z,74.63
2022-12-04T14:59:45.508Z,79.57
2022-12-04T15:02:17.327Z,74.40
2022-12-04T15:04:46.516Z,78.43
2022-12-04T15:07:26.187Z,80.28
2022-12-04T15:10:13.696Z,71.25
2022-12-04T15:12:54.223Z,81.63
2022-12-04T15:15:26.385Z,75.63
2022-12-04T15:18:01.975Z,69.15
2022-12-04T15:20:38.669Z,69.22
2022-12-04T15:23:05.814Z,67.20
2022-12-04T15:25:43.263Z,70.63
2022-12-04T15:28:31.299Z,66.85
2022-12-04T15:31:00.603Z,77.13
2022-12-04T15:33:35.271Z,77.65
2022-12-04T15:36:09.491Z,67.47
2022-12-04T15:38:36.741Z,70.38
2022-12-04T15:41:03.268Z,61.97
2022-12-04T15:43:40.814Z,68.88
2022-12-04T15:46:31.238Z,67.18
2022-12-04T15:49:18.660Z,70.45
2022-12-04T15:51:47.145Z,68.32
2022-12-04T15:54:25.992Z,65.45
2022-12-04T15:57:03.505Z,64.03
2022-12-04T15:59:30.926Z,68.28
2022-12-04T16:02:05.526Z,66.28
2022-12-04T16:04:35.645Z,69.85
2022-12-04T16:07:02.527Z,69.05
2022-12-04T16:09:29.018Z,71.38
2022-12-04T16:12:01.634Z,72.18
2022-12-04T16:14:28.384Z,74.03
2022-12-04T16:17:00.056Z,62.28
2022-12-04T16:19:36.300Z,70.93
2022-12-04T16:22:09.384Z,65.50
2022-12-04T16:24:35.780Z,77.32
2022-12-04T16:27:04.589Z,62.60
2022-12-04T16:29:31.480Z,71.88
2022-12-04T16:32:03.052Z,64.57
2022-12-04T16:34:30.562Z,72.20
2022-12-04T16:36:57.153Z,70.07
2022-12-04T16:39:23.650Z,73.10
2022-12-04T16:41:50.116Z,67.43
2022-12-04T16:44:17.227Z,65.95
2022-12-04T16:46:44.585Z,72.03
2022-12-04T16:49:12.694Z,68.82
2022-12-04T16:51:45.821Z,56.45
2022-12-04T16:54:13.467Z,62.95
2022-12-04T16:56:39.998Z,63.63
2022-12-04T16:59:11.558Z,61.70
2022-12-04T17:01:42.777Z,59.60
2022-12-04T17:04:09.515Z,63.85
2022-12-04T17:06:36.263Z,57.65
2022-12-04T17:09:02.862Z,63.85
2022-12-04T17:11:29.364Z,57.03
2022-12-04T17:13:55.954Z,58.33
2022-12-04T17:16:24.597Z,57.70
2022-12-04T17:18:51.920Z,59.28
2022-12-04T17:21:18.424Z,55.75
2022-12-04T17:23:45.000Z,59.67
2022-12-04T17:26:14.434Z,62.70
2022-12-04T17:28:41.375Z,58.70
2022-12-04T17:31:27.300Z,56.70
2022-12-04T17:33:53.990Z,61.15
2022-12-04T17:36:23.487Z,55.90
2022-12-04T17:38:54.569Z,54.28
2022-12-04T17:41:21.165Z,62.88
2022-12-04T17:43:47.761Z,59.17
2022-12-04T17:46:18.862Z,61.78
2022-12-04T17:48:45.455Z,61.33
2022-12-04T17:51:15.141Z,56.75
2022-12-04T17:53:42.491Z,63.85
2022-12-04T17:56:12.485Z,54.95
2022-12-04T17:58:38.902Z,57.13
2022-12-04T18:01:11.100Z,55.97
2022-12-04T18:03:38.411Z,66.22
2022-12-04T18:06:17.357Z,59.53
2022-12-04T18:08:49.846Z,61.88
2022-12-04T18:11:21.699Z,50.65
2022-12-04T18:13:49.255Z,58.10
2022-12-04T18:16:15.853Z,61.42
2022-12-04T18:18:46.640Z,57.95
2022-12-04T18:21:14.673Z,55.33
2022-12-04T18:23:45.680Z,60.40
2022-12-04T18:26:15.825Z,60.80
2022-12-04T18:28:42.474Z,55.30
2022-12-04T18:31:09.835Z,61.38
2022-12-04T18:33:38.405Z,55.55
2022-12-04T18:36:05.686Z,59.58
2022-12-04T18:38:32.549Z,51.83
2022-12-04T18:41:06.686Z,54.42
2022-12-04T18:43:34.575Z,56.08
2022-12-04T18:46:07.267Z,57.17
2022-12-04T18:48:35.137Z,57.13
2022-12-04T18:51:01.687Z,59.33
2022-12-04T18:53:28.199Z,57.05
2022-12-04T18:55:55.389Z,55.13
2022-12-04T18:58:22.914Z,56.75
2022-12-04T19:00:51.730Z,54.00
2022-12-04T19:03:18.474Z,60.20
2022-12-04T19:05:49.112Z,60.47
2022-12-04T19:08:15.912Z,55.13
2022-12-04T19:10:42.489Z,51.33
2022-12-04T19:13:08.980Z,55.85
2022-12-04T19:15:42.003Z,52.63
2022-12-04T19:18:08.583Z,52.72
2022-12-04T19:20:35.100Z,47.78
2022-12-04T19:23:01.555Z,54.55
2022-12-04T19:25:28.065Z,50.95
2022-12-04T19:27:55.526Z,52.03
2022-12-04T19:30:22.051Z,50.10
2022-12-04T19:32:49.361Z,49.78
2022-12-04T19:35:15.885Z,52.22
2022-12-04T19:37:44.781Z,51.75
2022-12-04T19:40:14.865Z,50.30
2022-12-04T19:42:41.385Z,54.55
2022-12-04T19:45:08.208Z,45.28
2022-12-04T19:47:34.704Z,49.83
2022-12-04T19:50:01.115Z,48.90
2022-12-04T19:52:27.665Z,50.75
2022-12-04T19:54:54.130Z,45.55
2022-12-04T19:57:20.624Z,44.03
2022-12-04T19:59:47.115Z,48.97
2022-12-04T20:02:14.129Z,50.60
2022-12-04T20:04:41.022Z,52.78
2022-12-04T20:07:07.454Z,49.65
2022-12-04T20:09:34.345Z,52.13
2022-12-04T20:12:00.973Z,48.97
2022-12-04T20:14:28.098Z,49.53
2022-12-04T20:16:54.650Z,49.33
2022-12-04T20:19:21.165Z,46.88
2022-12-04T20:21:48.190Z,46.17
2022-12-04T20:24:16.595Z,50.63
2022-12-04T20:26:44.844Z,52.40
2022-12-04T20:29:13.984Z,45.92
2022-12-04T20:31:44.261Z,46.70
2022-12-04T20:34:14.355Z,53.85
2022-12-04T20:36:43.904Z,48.03
2022-12-04T20:39:11.833Z,48.88
2022-12-04T20:41:38.811Z,46.22
2022-12-04T20:44:07.033Z,44.15
2022-12-04T20:46:35.888Z,48.47
2022-12-04T20:49:06.358Z,47.58
2022-12-04T20:51:35.400Z,48.70
2022-12-04T20:54:02.357Z,47.80
2022-12-04T20:56:34.339Z,46.28
2022-12-04T20:59:06.519Z,44.50
2022-12-04T21:01:33.978Z,41.53
2022-12-04T21:04:01.864Z,44.53
2022-12-04T21:06:34.820Z,42.53
2022-12-04T21:09:06.043Z,45.58
2022-12-04T21:11:39.234Z,41.33
2022-12-04T21:14:32.358Z,41.92
2022-12-04T21:16:58.987Z,40.90
2022-12-04T21:19:26.097Z,50.58
2022-12-04T21:21:53.326Z,46.78
2022-12-04T21:24:22.171Z,42.70
2022-12-04T21:26:48.752Z,44.63
2022-12-04T21:29:15.633Z,44.22
2022-12-04T21:31:42.458Z,44.50
2022-12-04T21:34:11.629Z,47.65
2022-12-04T21:36:38.202Z,45.20
2022-12-04T21:39:05.032Z,42.63
2022-12-04T21:41:50.182Z,39.17
2022-12-04T21:44:18.356Z,36.40
2022-12-04T21:46:45.441Z,39.50
2022-12-04T21:49:13.602Z,38.85
2022-12-04T21:51:56.722Z,43.17
2022-12-04T21:54:23.564Z,41.75
2022-12-04T21:56:50.755Z,38.97
2022-12-04T21:59:17.283Z,37.88
2022-12-04T22:01:44.259Z,43.05
2022-12-04T22:04:10.721Z,45.10
2022-12-04T22:06:38.021Z,42.53
2022-12-04T22:09:07.845Z,44.20
2022-12-04T22:11:34.447Z,40.75
2022-12-04T22:14:00.856Z,39.60
2022-12-04T22:16:30.523Z,38.22
2022-12-04T22:18:58.704Z,43.42
2022-12-04T22:21:26.265Z,38.08
2022-12-04T22:24:01.432Z,39.90
2022-12-04T22:26:29.614Z,39.45
2022-12-04T22:28:56.581Z,42.20
2022-12-04T22:31:25.852Z,38.13
2022-12-04T22:33:54.424Z,45.05
2022-12-04T22:36:23.947Z,37.97
2022-12-04T22:39:09.929Z,46.33
2022-12-04T22:41:37.346Z,37.15
2022-12-04T22:44:03.958Z,41.13
2022-12-04T22:46:30.507Z,38.20
2022-12-04T22:48:58.639Z,41.83
2022-12-04T22:51:25.296Z,36.42
2022-12-04T22:53:54.126Z,42.97
2022-12-04T22:56:29.456Z,40.42
2022-12-04T22:58:58.243Z,37.53
2022-12-04T23:01:28.300Z,38.30
2022-12-04T23:03:55.457Z,45.35
2022-12-04T23:06:24.061Z,34.28
2022-12-04T23:08:54.764Z,37.08
2022-12-04T23:11:22.778Z,38.17
2022-12-04T23:13:51.225Z,40.38
2022-12-04T23:16:20.493Z,42.70
2022-12-04T23:18:47.408Z,38.78
2022-12-04T23:21:15.149Z,42.15
2022-12-04T23:23:44.274Z,38.72
2022-12-04T23:26:15.328Z,36.00
2022-12-04T23:28:42.424Z,37.63
2022-12-04T23:31:10.896Z,43.38
2022-12-04T23:33:38.544Z,38.13
2022-12-04T23:36:07.676Z,40.35
2022-12-04T23:38:36.307Z,36.08
2022-12-04T23:41:14.564Z,37.80
2022-12-04T23:43:41.652Z,36.13
2022-12-04T23:46:11.612Z,35.25
2022-12-04T23:48:40.149Z,37.95
2022-12-04T23:51:08.486Z,39.45
2022-12-04T23:53:35.428Z,35.70
2022-12-04T23:56:09.863Z,37.40
2022-12-04T23:58:37.209Z,36.05
